Time;durP1;ratioP1;P1;durP2;ratioP2;P2;SDS_P1;SDS_P2;PMS_P1;PMS_P2;Temp;Humidity;BMP_temperature;BMP_pressure;BME280_temperature;BME280_humidity;BME280_pressure;Samples;Min_cycle;Max_cycle;Signal;HPM_P1;HPM_P2
2022/11/19 00:02:24;;;;;;;6.18;2.67;;;2.90;99.90;;;;;;5003140;28;20041;-71
2022/11/19 00:04:50;;;;;;;2.92;1.75;;;2.90;99.90;;;;;;5004041;28;20049;-71
2022/11/19 00:07:16;;;;;;;3.80;1.83;;;2.90;99.90;;;;;;5004206;28;20373;-71
2022/11/19 00:09:42;;;;;;;4.43;2.25;;;2.90;99.90;;;;;;5004165;28;20080;-71
2022/11/19 00:14:54;;;;;;;2.67;1.50;;;2.80;99.90;;;;;;4999668;28;20046;-71
2022/11/19 00:17:19;;;;;;;4.10;1.92;;;2.80;99.90;;;;;;5000352;28;20040;-71
2022/11/19 00:19:45;;;;;;;3.38;1.33;;;2.70;99.90;;;;;;4997771;28;20057;-71
2022/11/19 00:22:11;;;;;;;2.67;1.30;;;2.70;99.90;;;;;;5002363;28;20056;-71
2022/11/19 00:24:36;;;;;;;3.42;1.20;;;2.70;99.90;;;;;;5000417;28;20050;-71
2022/11/19 00:27:02;;;;;;;5.38;2.00;;;2.70;99.90;;;;;;5017391;28;20514;-71
2022/11/19 00:29:28;;;;;;;3.08;1.35;;;2.70;99.90;;;;;;4995709;28;20052;-71
2022/11/19 00:31:53;;;;;;;3.90;2.47;;;2.80;99.90;;;;;;5003018;28;20121;-71
2022/11/19 00:34:19;;;;;;;2.33;1.25;;;2.80;99.90;;;;;;5003215;28;20129;-71
2022/11/19 00:36:44;;;;;;;9.35;1.95;;;2.70;99.90;;;;;;5003264;28;20127;-71
2022/11/19 00:39:10;;;;;;;1.35;0.85;;;2.70;99.90;;;;;;5000651;28;20115;-71
2022/11/19 00:41:35;;;;;;;2.10;1.40;;;2.80;99.90;;;;;;4999529;28;20400;-71
2022/11/19 00:44:01;;;;;;;2.38;1.42;;;2.70;99.90;;;;;;4998246;28;20075;-71
2022/11/19 00:46:30;;;;;;;2.90;1.33;;;2.70;99.90;;;;;;4999359;28;20049;-71
2022/11/19 00:48:58;;;;;;;1.42;0.82;;;2.70;99.90;;;;;;5000639;28;20117;-71
2022/11/19 00:51:25;;;;;;;4.22;1.48;;;2.70;99.90;;;;;;4984569;28;20038;-71
2022/11/19 00:53:51;;;;;;;1.95;0.93;;;2.70;99.90;;;;;;5001359;28;20501;-71
2022/11/19 00:56:20;;;;;;;2.60;1.40;;;2.60;99.90;;;;;;5002475;28;20037;-71
2022/11/19 00:58:46;;;;;;;3.83;1.95;;;2.60;99.90;;;;;;5000815;28;20060;-71
2022/11/19 01:01:13;;;;;;;2.78;1.42;;;2.60;99.90;;;;;;4999576;28;20034;-71
2022/11/19 01:03:39;;;;;;;2.15;1.27;;;2.50;99.90;;;;;;4985249;28;20049;-71
2022/11/19 01:06:06;;;;;;;2.33;1.00;;;2.50;99.90;;;;;;4985801;28;20074;-71
2022/11/19 01:08:33;;;;;;;1.83;0.93;;;2.40;99.90;;;;;;5002258;28;20065;-71
2022/11/19 01:11:07;;;;;;;2.60;1.40;;;2.40;99.90;;;;;;5004214;28;20054;-71
2022/11/19 01:13:33;;;;;;;3.22;1.50;;;2.40;99.90;;;;;;5015405;28;20064;-71
2022/11/19 01:16:00;;;;;;;3.42;1.50;;;2.30;99.90;;;;;;5000196;28;20038;-71
2022/11/19 01:18:26;;;;;;;2.80;1.15;;;2.30;99.90;;;;;;5000199;28;20085;-71
2022/11/19 01:20:52;;;;;;;3.30;1.42;;;2.20;99.90;;;;;;5000377;28;20065;-70
2022/11/19 01:23:18;;;;;;;5.40;1.60;;;2.20;99.90;;;;;;5001354;28;20088;-71
2022/11/19 01:25:44;;;;;;;3.20;1.50;;;2.10;99.90;;;;;;5000863;28;20116;-70
2022/11/19 01:28:09;;;;;;;1.20;0.85;;;2.10;99.90;;;;;;5001088;28;20424;-71
2022/11/19 01:30:39;;;;;;;2.33;1.45;;;2.10;99.90;;;;;;4980507;28;21735;-71
2022/11/19 01:33:05;;;;;;;2.42;0.88;;;2.10;99.90;;;;;;5017675;28;20399;-71
2022/11/19 01:35:31;;;;;;;4.25;1.67;;;2.10;99.90;;;;;;5001286;28;20029;-71
2022/11/19 01:37:56;;;;;;;2.42;1.27;;;2.00;99.90;;;;;;4985242;28;20059;-71
2022/11/19 01:40:22;;;;;;;3.83;1.45;;;2.00;99.90;;;;;;5001855;28;20537;-71
2022/11/19 01:42:52;;;;;;;2.97;1.23;;;2.00;99.90;;;;;;4999349;28;20034;-71
2022/11/19 01:45:27;;;;;;;3.05;1.67;;;1.90;99.90;;;;;;4994800;28;20491;-71
2022/11/19 01:47:54;;;;;;;2.53;1.52;;;2.00;99.90;;;;;;4994283;28;20034;-70
2022/11/19 01:50:21;;;;;;;3.45;1.42;;;2.00;99.90;;;;;;5017209;28;20041;-70
2022/11/19 01:52:48;;;;;;;2.42;1.30;;;2.00;99.90;;;;;;4983062;28;20079;-71
2022/11/19 01:55:15;;;;;;;6.93;1.40;;;2.00;99.90;;;;;;5000780;28;20491;-71
2022/11/19 01:57:40;;;;;;;3.08;1.35;;;2.00;99.90;;;;;;5000218;28;20076;-71
2022/11/19 02:00:07;;;;;;;5.25;1.80;;;2.00;99.90;;;;;;5015483;28;20475;-71
2022/11/19 02:02:33;;;;;;;4.63;1.77;;;2.00;99.90;;;;;;4981206;28;20038;-71
2022/11/19 02:05:00;;;;;;;2.47;1.40;;;2.00;99.90;;;;;;4989639;28;20030;-71
2022/11/19 02:07:28;;;;;;;4.55;1.63;;;2.00;99.90;;;;;;5003421;28;20055;-71
2022/11/19 02:10:05;;;;;;;5.22;1.98;;;2.00;99.90;;;;;;4984309;28;20042;-71
2022/11/19 02:12:33;;;;;;;4.28;1.08;;;2.00;99.90;;;;;;4999467;28;20092;-71
2022/11/19 02:15:20;;;;;;;2.80;1.45;;;2.00;99.90;;;;;;4999620;28;20096;-71
2022/11/19 02:17:46;;;;;;;1.70;1.23;;;1.90;99.90;;;;;;4998615;28;20505;-71
2022/11/19 02:20:23;;;;;;;2.83;1.95;;;1.90;99.90;;;;;;4981715;28;20046;-71
2022/11/19 02:23:14;;;;;;;5.43;1.35;;;1.90;99.90;;;;;;4996265;28;20124;-71
2022/11/19 02:26:04;;;;;;;1.88;1.15;;;1.90;99.90;;;;;;4996565;28;20088;-71
2022/11/19 02:28:38;;;;;;;1.70;1.25;;;1.80;99.90;;;;;;5000983;28;20037;-71
2022/11/19 02:31:11;;;;;;;3.83;1.63;;;1.80;99.90;;;;;;5000029;28;20038;-71
2022/11/19 02:34:00;;;;;;;2.28;1.73;;;1.80;99.90;;;;;;5015067;28;20130;-71
2022/11/19 02:36:34;;;;;;;2.45;1.15;;;1.80;99.90;;;;;;4998033;28;20427;-71
2022/11/19 02:39:39;;;;;;;5.30;1.33;;;1.80;99.90;;;;;;4999471;28;20784;-71
2022/11/19 02:42:24;;;;;;;2.75;1.17;;;1.80;99.90;;;;;;4999529;28;20087;-71
2022/11/19 02:45:00;;;;;;;2.35;0.90;;;1.70;99.90;;;;;;4998578;28;20034;-71
2022/11/19 02:47:35;;;;;;;5.90;2.65;;;1.70;99.90;;;;;;4982925;28;20052;-71
2022/11/19 02:50:27;;;;;;;3.80;1.60;;;1.70;99.90;;;;;;4994016;28;20476;-71
2022/11/19 02:52:53;;;;;;;3.95;2.25;;;1.70;99.90;;;;;;4997578;28;20089;-71
2022/11/19 02:55:21;;;;;;;2.17;1.38;;;1.80;99.90;;;;;;4999758;28;20506;-71
2022/11/19 02:57:57;;;;;;;1.50;1.25;;;1.60;99.90;;;;;;5000432;28;20036;-71
2022/11/19 03:06:15;;;;;;;0.85;0.63;;;1.60;99.90;;;;;;5001965;28;20042;-71
2022/11/19 03:08:41;;;;;;;2.17;1.52;;;1.60;99.90;;;;;;5002312;28;20160;-71
2022/11/19 03:11:28;;;;;;;2.00;1.30;;;1.50;99.90;;;;;;5002878;28;20602;-71
2022/11/19 03:16:44;;;;;;;3.47;0.82;;;1.50;99.90;;;;;;5019382;28;20042;-71
2022/11/19 03:19:36;;;;;;;1.92;1.17;;;1.50;99.90;;;;;;5002670;28;20062;-71
2022/11/19 03:22:14;;;;;;;2.72;1.40;;;1.50;99.90;;;;;;5021100;28;20042;-71
2022/11/19 03:24:44;;;;;;;1.67;1.05;;;1.40;99.90;;;;;;5003527;28;20053;-71
2022/11/19 03:27:20;;;;;;;1.98;1.02;;;1.40;99.90;;;;;;5002615;28;20041;-71
2022/11/19 03:29:50;;;;;;;2.75;2.03;;;1.40;99.90;;;;;;5004521;28;20049;-71
2022/11/19 03:32:21;;;;;;;1.00;0.63;;;1.40;99.90;;;;;;5003926;28;20049;-71
2022/11/19 03:34:51;;;;;;;6.43;1.80;;;1.40;99.90;;;;;;5000832;28;20048;-71
2022/11/19 03:37:19;;;;;;;1.65;1.15;;;1.40;99.90;;;;;;5015007;28;20041;-71
2022/11/19 03:39:47;;;;;;;3.00;1.50;;;1.40;99.90;;;;;;5001026;28;20633;-71
2022/11/19 03:42:17;;;;;;;4.18;1.13;;;1.40;99.90;;;;;;5001907;28;20053;-71
2022/11/19 03:44:47;;;;;;;2.85;0.90;;;1.30;99.90;;;;;;5002682;28;20522;-71
2022/11/19 03:47:18;;;;;;;1.50;0.80;;;1.30;99.90;;;;;;5003861;28;20706;-70
2022/11/19 03:49:47;;;;;;;2.83;1.67;;;1.30;99.90;;;;;;5000924;28;20034;-71
2022/11/19 03:52:16;;;;;;;2.17;1.27;;;1.30;99.90;;;;;;5002692;28;20049;-71
2022/11/19 03:54:42;;;;;;;4.82;1.13;;;1.30;99.90;;;;;;5001563;28;20049;-71
2022/11/19 03:57:11;;;;;;;2.72;1.98;;;1.30;99.90;;;;;;5016590;28;20034;-70
2022/11/19 03:59:37;;;;;;;1.67;1.25;;;1.30;99.90;;;;;;5002983;28;20046;-71
2022/11/19 04:02:05;;;;;;;2.08;1.52;;;1.20;99.90;;;;;;5003835;28;20038;-70
2022/11/19 04:04:37;;;;;;;3.17;1.58;;;1.20;99.90;;;;;;5000603;28;20061;-70
2022/11/19 04:07:09;;;;;;;1.60;1.33;;;1.20;99.90;;;;;;4999620;28;20046;-71
2022/11/19 04:09:35;;;;;;;4.07;1.88;;;1.20;99.90;;;;;;4980499;28;20030;-70
2022/11/19 04:12:01;;;;;;;3.67;1.83;;;1.20;99.90;;;;;;4986133;28;20087;-70
2022/11/19 04:14:26;;;;;;;3.45;1.17;;;1.20;99.90;;;;;;5001573;28;20034;-71
2022/11/19 04:16:52;;;;;;;4.20;1.40;;;1.10;99.90;;;;;;5000176;28;20041;-71
2022/11/19 04:19:18;;;;;;;2.45;1.25;;;1.10;99.90;;;;;;4998378;28;20078;-71
2022/11/19 04:21:44;;;;;;;3.78;2.20;;;1.10;99.90;;;;;;5001253;28;20041;-71
2022/11/19 04:24:09;;;;;;;2.33;1.40;;;1.10;99.90;;;;;;4986128;28;20083;-71
2022/11/19 04:26:35;;;;;;;1.58;1.00;;;1.20;99.90;;;;;;5002164;28;20033;-71
2022/11/19 04:29:01;;;;;;;3.75;1.70;;;1.10;99.90;;;;;;4984862;28;20795;-71
2022/11/19 04:31:26;;;;;;;2.10;1.40;;;1.10;99.90;;;;;;5001819;28;20107;-70
2022/11/19 04:33:52;;;;;;;1.88;0.88;;;1.10;99.90;;;;;;5000116;28;20045;-71
2022/11/19 04:36:17;;;;;;;2.33;1.45;;;1.10;99.90;;;;;;5001467;28;20112;-70
2022/11/19 04:38:43;;;;;;;1.65;1.10;;;1.10;99.90;;;;;;5001160;28;20049;-71
2022/11/19 04:41:08;;;;;;;1.40;0.80;;;1.10;99.90;;;;;;5002250;28;20049;-70
2022/11/19 04:43:34;;;;;;;2.53;1.10;;;1.10;99.90;;;;;;5000271;28;20331;-71
2022/11/19 04:46:00;;;;;;;2.20;1.33;;;1.10;99.90;;;;;;5000896;28;20045;-70
2022/11/19 04:48:25;;;;;;;5.28;1.60;;;1.00;99.90;;;;;;5015836;28;20034;-71
2022/11/19 04:50:51;;;;;;;2.75;1.45;;;1.00;99.90;;;;;;5001896;28;20038;-70
2022/11/19 04:53:17;;;;;;;3.55;1.48;;;1.00;99.90;;;;;;4999840;28;20124;-71
2022/11/19 04:55:42;;;;;;;1.80;1.08;;;1.00;99.90;;;;;;5001231;28;20038;-70
2022/11/19 04:58:08;;;;;;;1.98;1.25;;;1.00;99.90;;;;;;4983546;28;20475;-70
2022/11/19 05:00:34;;;;;;;2.78;1.88;;;0.90;99.90;;;;;;5017432;28;20534;-70
2022/11/19 05:03:00;;;;;;;3.70;1.52;;;0.90;99.90;;;;;;5004504;28;20041;-70
2022/11/19 05:05:25;;;;;;;1.70;1.15;;;0.90;99.90;;;;;;5000652;28;20204;-70
2022/11/19 05:07:51;;;;;;;2.15;0.80;;;0.80;99.90;;;;;;5000197;28;20100;-70
2022/11/19 05:10:16;;;;;;;3.92;2.00;;;0.90;99.90;;;;;;5001458;28;20042;-70
2022/11/19 05:12:42;;;;;;;1.33;0.95;;;0.80;99.90;;;;;;5004467;28;20038;-71
2022/11/19 05:15:08;;;;;;;2.35;1.17;;;0.80;99.90;;;;;;5002471;28;20273;-70
2022/11/19 05:17:34;;;;;;;2.33;1.30;;;0.80;99.90;;;;;;5002760;28;20049;-70
2022/11/19 05:19:59;;;;;;;1.85;1.15;;;0.80;99.90;;;;;;4999949;28;20411;-70
2022/11/19 05:22:25;;;;;;;7.03;2.45;;;0.80;99.90;;;;;;4984652;28;20080;-70
2022/11/19 05:24:51;;;;;;;4.40;3.08;;;0.80;99.90;;;;;;4998310;28;20145;-70
2022/11/19 05:27:16;;;;;;;4.38;1.50;;;0.70;99.90;;;;;;5016666;28;20065;-70
2022/11/19 05:29:42;;;;;;;2.65;1.67;;;0.70;99.90;;;;;;5000701;28;20040;-71
2022/11/19 05:32:07;;;;;;;3.08;1.95;;;0.70;99.90;;;;;;5002125;28;20669;-70
2022/11/19 05:34:33;;;;;;;3.55;1.70;;;0.70;99.90;;;;;;5001728;28;20049;-70
2022/11/19 05:36:58;;;;;;;3.50;1.65;;;0.70;99.90;;;;;;4999250;28;20656;-70
2022/11/19 05:39:24;;;;;;;5.22;2.03;;;0.70;99.90;;;;;;5000290;28;20046;-70
2022/11/19 05:41:50;;;;;;;2.92;1.83;;;0.70;99.90;;;;;;4985163;28;20056;-70
2022/11/19 05:44:15;;;;;;;3.00;1.83;;;0.70;99.90;;;;;;5000438;28;20045;-70
2022/11/19 05:46:41;;;;;;;2.72;2.00;;;0.60;99.90;;;;;;5000537;28;20084;-70
2022/11/19 05:49:06;;;;;;;3.22;1.73;;;0.60;99.90;;;;;;4982791;28;20104;-70
2022/11/19 05:51:32;;;;;;;2.08;1.30;;;0.50;99.90;;;;;;4999159;28;20159;-70
2022/11/19 05:53:57;;;;;;;4.72;1.73;;;0.50;99.90;;;;;;4999244;28;20509;-70
2022/11/19 05:56:23;;;;;;;2.13;1.67;;;0.50;99.90;;;;;;4984433;28;20511;-71
2022/11/19 05:58:48;;;;;;;3.58;2.05;;;0.50;99.90;;;;;;4999482;28;20046;-70
2022/11/19 06:01:14;;;;;;;3.15;1.42;;;0.50;99.90;;;;;;5000569;28;20069;-70
2022/11/19 06:03:40;;;;;;;3.38;1.08;;;0.50;99.90;;;;;;4999091;28;20054;-70
2022/11/19 06:06:06;;;;;;;3.60;1.98;;;0.50;99.90;;;;;;5001298;28;20564;-70
2022/11/19 06:08:32;;;;;;;2.40;1.55;;;0.50;99.90;;;;;;4996535;28;20503;-70
2022/11/19 06:11:00;;;;;;;3.63;1.75;;;0.50;99.90;;;;;;5000613;28;20491;-70
2022/11/19 06:13:26;;;;;;;3.05;1.65;;;0.50;99.90;;;;;;4999981;28;20038;-70
2022/11/19 06:15:51;;;;;;;2.17;1.42;;;0.50;99.90;;;;;;5000708;28;20502;-70
2022/11/19 06:18:17;;;;;;;2.88;1.35;;;0.50;99.90;;;;;;4999930;28;20125;-70
2022/11/19 06:20:42;;;;;;;3.55;2.25;;;0.50;99.90;;;;;;4984671;28;20506;-70
2022/11/19 06:23:08;;;;;;;2.67;1.13;;;0.50;99.90;;;;;;4998299;28;20380;-70
2022/11/19 06:25:34;;;;;;;2.33;1.35;;;0.50;99.90;;;;;;4982104;28;20049;-70
2022/11/19 06:27:59;;;;;;;1.63;1.23;;;0.40;99.90;;;;;;4998850;28;20048;-70
2022/11/19 06:30:25;;;;;;;2.85;1.40;;;0.50;99.90;;;;;;5014866;28;20535;-70
2022/11/19 06:32:50;;;;;;;4.07;2.20;;;0.50;99.90;;;;;;5000563;28;20507;-70
2022/11/19 06:35:16;;;;;;;3.38;2.03;;;0.40;99.90;;;;;;4999800;28;20041;-71
2022/11/19 06:37:41;;;;;;;3.15;1.90;;;0.40;99.90;;;;;;4998659;28;20045;-71
2022/11/19 06:40:07;;;;;;;2.17;1.65;;;0.40;99.90;;;;;;4982264;28;20052;-70
2022/11/19 06:42:36;;;;;;;3.83;2.25;;;0.40;99.90;;;;;;4999066;28;20042;-70
2022/11/19 06:45:03;;;;;;;3.92;1.90;;;0.40;99.90;;;;;;5000390;28;20034;-70
2022/11/19 06:47:32;;;;;;;3.92;2.13;;;0.40;99.90;;;;;;5000522;28;20073;-70
2022/11/19 06:49:58;;;;;;;3.47;2.67;;;0.30;99.90;;;;;;5000667;28;20123;-70
2022/11/19 06:52:24;;;;;;;4.70;2.70;;;0.30;99.90;;;;;;4980670;28;20037;-70
2022/11/19 06:54:50;;;;;;;5.35;2.42;;;0.40;99.90;;;;;;4999955;28;20447;-70
2022/11/19 06:57:15;;;;;;;5.68;2.83;;;0.40;99.90;;;;;;5000671;28;20038;-71
2022/11/19 06:59:41;;;;;;;2.42;1.00;;;0.40;99.90;;;;;;4981125;28;20042;-70
2022/11/19 07:02:08;;;;;;;3.67;2.70;;;0.30;99.90;;;;;;4998073;28;20049;-70
2022/11/19 07:04:34;;;;;;;2.92;2.05;;;0.40;99.90;;;;;;4999633;28;20506;-70
2022/11/19 07:06:59;;;;;;;3.83;2.30;;;0.30;99.90;;;;;;4996661;28;20037;-70
2022/11/19 07:09:25;;;;;;;3.72;2.55;;;0.30;99.90;;;;;;4999001;28;20030;-71
2022/11/19 07:11:50;;;;;;;2.55;1.85;;;0.30;99.90;;;;;;4999411;28;20609;-70
2022/11/19 07:14:16;;;;;;;2.67;1.90;;;0.30;99.90;;;;;;4998835;28;20045;-70
2022/11/19 07:16:41;;;;;;;5.20;1.88;;;0.40;99.90;;;;;;4982134;28;20046;-70
2022/11/19 07:19:08;;;;;;;4.05;2.28;;;0.40;99.90;;;;;;5000582;28;20050;-70
2022/11/19 07:21:34;;;;;;;2.65;1.95;;;0.30;99.90;;;;;;4980940;28;20073;-70
2022/11/19 07:24:03;;;;;;;4.38;1.90;;;0.30;99.90;;;;;;5002241;28;20121;-70
2022/11/19 07:26:30;;;;;;;4.78;2.05;;;0.30;99.90;;;;;;5003364;28;20049;-70
2022/11/19 07:28:58;;;;;;;3.88;1.50;;;0.30;99.90;;;;;;4985438;28;20038;-70
2022/11/19 07:31:23;;;;;;;3.92;2.75;;;0.30;99.90;;;;;;4999819;28;20064;-70
2022/11/19 07:33:49;;;;;;;5.30;2.72;;;0.30;99.90;;;;;;4995252;28;20528;-70
2022/11/19 07:36:15;;;;;;;5.43;2.28;;;0.30;99.90;;;;;;4998046;28;20101;-71
2022/11/19 07:38:40;;;;;;;3.22;2.53;;;0.30;99.90;;;;;;4996571;28;20050;-70
2022/11/19 07:43:50;;;;;;;2.15;1.70;;;0.30;99.90;;;;;;4999045;28;20050;-71
2022/11/19 07:46:16;;;;;;;5.65;2.88;;;0.30;99.90;;;;;;4998460;28;20121;-71
2022/11/19 07:48:41;;;;;;;2.92;1.63;;;0.30;99.90;;;;;;4996089;28;20124;-71
2022/11/19 07:51:07;;;;;;;6.28;3.15;;;0.30;99.90;;;;;;5004398;28;20034;-71
2022/11/19 07:53:32;;;;;;;3.53;2.17;;;0.30;99.90;;;;;;5002514;28;20042;-70
2022/11/19 07:56:02;;;;;;;4.05;1.92;;;0.30;99.90;;;;;;5003238;28;20073;-70
2022/11/19 07:58:28;;;;;;;2.80;1.70;;;0.30;99.90;;;;;;5001056;28;20124;-70
2022/11/19 08:00:53;;;;;;;3.10;2.53;;;0.30;99.90;;;;;;5003293;28;20633;-71
2022/11/19 08:03:19;;;;;;;4.97;2.88;;;0.30;99.90;;;;;;4997401;28;20049;-70
2022/11/19 08:05:45;;;;;;;6.20;2.70;;;0.30;99.90;;;;;;4998962;28;20060;-70
2022/11/19 08:08:10;;;;;;;5.47;2.50;;;0.30;99.90;;;;;;5014017;28;20443;-71
2022/11/19 08:10:36;;;;;;;4.55;2.25;;;0.30;99.90;;;;;;5000593;28;20455;-71
2022/11/19 08:13:02;;;;;;;2.80;2.13;;;0.30;99.90;;;;;;5000806;28;20434;-71
2022/11/19 08:15:32;;;;;;;3.72;1.73;;;0.30;99.90;;;;;;5000182;28;20034;-71
2022/11/19 08:18:14;;;;;;;4.68;2.00;;;0.30;99.90;;;;;;4999111;28;20403;-71
2022/11/19 08:20:41;;;;;;;2.25;1.55;;;0.30;99.90;;;;;;5013988;28;20122;-71
2022/11/19 08:23:08;;;;;;;5.30;2.58;;;0.30;99.90;;;;;;4985778;28;20065;-71
2022/11/19 08:25:34;;;;;;;5.05;2.40;;;0.30;99.90;;;;;;4999637;28;20072;-71
2022/11/19 08:28:01;;;;;;;5.90;3.35;;;0.40;99.90;;;;;;4995155;28;20463;-71
2022/11/19 08:30:27;;;;;;;4.68;2.35;;;0.40;99.90;;;;;;4999121;28;20071;-71
2022/11/19 08:32:53;;;;;;;4.47;2.92;;;0.40;99.90;;;;;;4997470;28;20041;-71
2022/11/19 08:35:18;;;;;;;5.40;3.85;;;0.40;99.90;;;;;;5016772;28;20037;-71
2022/11/19 08:37:46;;;;;;;6.00;3.10;;;0.40;99.90;;;;;;4999578;28;20038;-70
2022/11/19 08:40:11;;;;;;;3.42;2.42;;;0.40;99.90;;;;;;5000175;28;20042;-71
2022/11/19 08:43:19;;;;;;;5.60;2.40;;;0.40;99.90;;;;;;5000519;28;20046;-70
2022/11/19 08:45:31;;;;;;;3.40;2.03;;;0.50;99.90;;;;;;4994257;28;20042;-71
2022/11/19 08:47:58;;;;;;;6.05;3.70;;;0.50;99.90;;;;;;5000154;28;20061;-71
2022/11/19 08:50:24;;;;;;;4.03;2.70;;;0.50;99.90;;;;;;4997735;28;20113;-74
2022/11/19 08:52:53;;;;;;;4.68;3.78;;;0.50;99.90;;;;;;5002191;28;20144;-71
2022/11/19 08:55:19;;;;;;;5.85;2.92;;;0.50;99.90;;;;;;4998533;28;20406;-71
2022/11/19 08:57:44;;;;;;;5.22;2.63;;;0.60;99.90;;;;;;5016290;28;20049;-71
2022/11/19 09:00:10;;;;;;;5.40;2.92;;;0.60;99.90;;;;;;5000152;28;20036;-71
2022/11/19 09:02:36;;;;;;;8.57;3.47;;;0.60;99.90;;;;;;5002671;28;20046;-71
2022/11/19 09:05:02;;;;;;;2.95;2.03;;;0.60;99.90;;;;;;5003199;28;20522;-71
2022/11/19 09:07:27;;;;;;;4.95;3.00;;;0.60;99.90;;;;;;5000018;28;20585;-71
2022/11/19 09:09:53;;;;;;;6.57;2.85;;;0.70;99.90;;;;;;4984792;28;20048;-71
2022/11/19 09:12:18;;;;;;;4.00;1.98;;;0.70;99.90;;;;;;4985096;28;20042;-71
2022/11/19 09:14:44;;;;;;;4.32;2.25;;;0.70;99.90;;;;;;5001177;28;20042;-71
2022/11/19 09:17:09;;;;;;;4.53;2.65;;;0.70;99.90;;;;;;4985717;28;20125;-71
2022/11/19 09:19:35;;;;;;;5.93;3.47;;;0.70;99.90;;;;;;5007740;28;20073;-71
2022/11/19 09:22:01;;;;;;;6.40;2.75;;;0.80;99.90;;;;;;4986295;28;20077;-71
2022/11/19 09:24:26;;;;;;;4.93;2.75;;;0.80;99.90;;;;;;5018040;28;20037;-71
2022/11/19 09:26:52;;;;;;;7.78;3.55;;;0.80;99.90;;;;;;5003462;28;20042;-71
2022/11/19 09:29:18;;;;;;;6.35;2.10;;;0.80;99.90;;;;;;5001252;28;20419;-71
2022/11/19 09:31:43;;;;;;;4.80;2.88;;;0.80;99.90;;;;;;5000861;28;21529;-71
2022/11/19 09:34:09;;;;;;;4.82;2.20;;;0.80;99.90;;;;;;4986515;28;20037;-71
2022/11/19 09:36:34;;;;;;;5.90;2.60;;;0.90;99.90;;;;;;5002807;28;20505;-71
2022/11/19 09:39:01;;;;;;;11.63;3.15;;;0.90;99.90;;;;;;5003014;28;20041;-71
2022/11/19 09:41:54;;;;;;;5.88;2.85;;;0.90;99.90;;;;;;5003655;28;20545;-71
2022/11/19 09:44:22;;;;;;;5.82;3.25;;;1.00;99.90;;;;;;4976316;28;20499;-72
2022/11/19 09:46:55;;;;;;;5.55;1.95;;;1.00;99.90;;;;;;4996284;28;20496;-72
2022/11/19 09:49:34;;;;;;;4.85;2.35;;;1.00;99.90;;;;;;4981300;28;20041;-71
2022/11/19 09:52:12;;;;;;;4.53;1.83;;;1.00;99.90;;;;;;5002040;28;20324;-71
2022/11/19 09:54:47;;;;;;;2.33;1.90;;;1.10;99.90;;;;;;5000211;28;20049;-71
2022/11/19 09:57:20;;;;;;;4.55;2.15;;;1.10;99.90;;;;;;4999114;28;20509;-72
2022/11/19 09:59:49;;;;;;;5.03;2.25;;;1.10;99.90;;;;;;4998057;28;20175;-72
2022/11/19 10:02:18;;;;;;;3.38;2.30;;;1.20;99.90;;;;;;5015154;28;20045;-71
2022/11/19 10:04:45;;;;;;;3.03;2.00;;;1.10;99.90;;;;;;5013581;28;20054;-72
2022/11/19 10:07:39;;;;;;;5.93;2.38;;;1.20;99.90;;;;;;4999596;28;20552;-71
2022/11/19 10:10:52;;;;;;;4.35;3.22;;;1.20;99.90;;;;;;4997402;28;20121;-72
2022/11/19 10:13:39;;;;;;;3.88;2.30;;;1.20;99.90;;;;;;4939948;28;20054;-72
2022/11/19 10:16:10;;;;;;;4.47;1.77;;;1.30;99.90;;;;;;4937623;28;20054;-72
2022/11/19 10:18:41;;;;;;;7.40;3.40;;;1.30;99.90;;;;;;4998709;28;20474;-72
2022/11/19 10:21:35;;;;;;;6.05;2.65;;;1.30;99.90;;;;;;4999749;28;20724;-72
2022/11/19 10:24:10;;;;;;;5.00;2.78;;;1.30;99.90;;;;;;5002830;28;20133;-72
2022/11/19 10:26:39;;;;;;;5.20;2.40;;;1.40;99.90;;;;;;5003462;28;20033;-72
2022/11/19 10:29:36;;;;;;;5.80;3.58;;;1.40;99.90;;;;;;5000908;28;20042;-72
2022/11/19 10:32:25;;;;;;;;;;;1.40;99.90;;;;;;5002863;28;20411;-71
2022/11/19 10:34:57;;;;;;;3.92;1.67;;;1.40;99.90;;;;;;4992242;28;20390;-72
2022/11/19 10:37:30;;;;;;;6.60;2.10;;;1.40;99.90;;;;;;4972725;28;20479;-72
2022/11/19 10:40:07;;;;;;;2.80;1.75;;;1.50;99.90;;;;;;5000410;28;20041;-72
2022/11/19 10:42:40;;;;;;;5.25;2.90;;;1.50;99.90;;;;;;5002552;28;20490;-71
2022/11/19 10:45:16;;;;;;;3.10;2.03;;;1.50;99.90;;;;;;5001067;28;20108;-72
2022/11/19 10:47:59;;;;;;;4.63;2.10;;;1.50;99.90;;;;;;5018338;28;21960;-72
2022/11/19 10:50:25;;;;;;;4.03;2.28;;;1.50;99.90;;;;;;5017494;28;20042;-72
2022/11/19 10:52:55;;;;;;;3.72;1.48;;;1.50;99.90;;;;;;5000725;28;20860;-72
2022/11/19 10:55:23;;;;;;;5.70;1.90;;;1.60;99.90;;;;;;5001783;28;20349;-72
2022/11/19 10:57:58;;;;;;;3.25;2.00;;;1.60;99.90;;;;;;4998915;28;20073;-72
2022/11/19 11:00:24;;;;;;;4.47;2.40;;;1.60;99.90;;;;;;5001747;28;20591;-71
2022/11/19 11:03:01;;;;;;;3.92;1.90;;;1.70;99.90;;;;;;5003092;28;20228;-72
2022/11/19 11:05:28;;;;;;;3.67;1.98;;;1.70;99.90;;;;;;5002165;28;20070;-72
2022/11/19 11:07:59;;;;;;;3.28;2.33;;;1.70;99.90;;;;;;4981708;28;20491;-72
2022/11/19 11:10:25;;;;;;;3.97;2.20;;;1.70;99.90;;;;;;4985273;28;20483;-72
2022/11/19 11:15:47;;;;;;;4.57;1.58;;;1.80;99.90;;;;;;5001708;28;20586;-72
2022/11/19 11:18:14;;;;;;;5.70;2.40;;;1.80;99.90;;;;;;4998270;28;20088;-72
2022/11/19 11:20:46;;;;;;;4.47;2.10;;;1.80;99.90;;;;;;5000317;28;20577;-72
2022/11/19 11:23:18;;;;;;;3.55;1.98;;;1.80;99.90;;;;;;4995491;28;20491;-72
2022/11/19 11:26:11;;;;;;;3.78;1.88;;;1.80;99.90;;;;;;4984473;28;20049;-72
2022/11/19 11:28:53;;;;;;;3.10;1.92;;;1.80;99.90;;;;;;5002630;28;20041;-72
2022/11/19 11:31:32;;;;;;;4.18;2.55;;;1.90;99.90;;;;;;5001371;28;20519;-72
2022/11/19 11:34:01;;;;;;;9.43;3.00;;;1.90;99.90;;;;;;5020546;28;20128;-72
2022/11/19 11:36:29;;;;;;;5.32;2.03;;;1.90;99.90;;;;;;5003769;28;20553;-72
2022/11/19 11:38:57;;;;;;;5.25;2.28;;;2.00;99.90;;;;;;5003648;28;20486;-72
2022/11/19 11:41:33;;;;;;;1.98;1.55;;;2.00;99.90;;;;;;5002072;28;20045;-72
2022/11/19 11:44:13;;;;;;;6.78;3.42;;;2.00;99.90;;;;;;4983651;28;20491;-72
2022/11/19 11:46:42;;;;;;;4.47;2.10;;;2.00;99.90;;;;;;5005102;28;20046;-72
2022/11/19 11:49:22;;;;;;;6.93;2.67;;;2.00;99.90;;;;;;4984704;28;20038;-72
2022/11/19 11:52:02;;;;;;;3.60;1.73;;;2.10;99.90;;;;;;4993651;28;20034;-72
2022/11/19 11:54:28;;;;;;;4.07;1.50;;;2.10;99.90;;;;;;5005360;28;20041;-72
2022/11/19 11:57:13;;;;;;;3.80;2.35;;;2.10;99.90;;;;;;5004159;28;20038;-72
2022/11/19 11:59:38;;;;;;;4.27;1.57;;;2.20;99.90;;;;;;5018253;28;20045;-72
2022/11/19 12:02:06;;;;;;;4.40;2.10;;;2.20;99.90;;;;;;5003774;28;20037;-71
2022/11/19 12:04:33;;;;;;;3.38;1.45;;;2.20;99.90;;;;;;5004578;28;20050;-72
2022/11/19 12:07:13;;;;;;;3.80;1.95;;;2.20;99.90;;;;;;5003078;28;20232;-72
2022/11/19 12:09:53;;;;;;;4.15;2.33;;;2.20;99.90;;;;;;5007290;28;20038;-72
2022/11/19 12:12:30;;;;;;;4.30;2.25;;;2.20;99.90;;;;;;5003693;28;20049;-72
2022/11/19 12:15:02;;;;;;;2.88;1.70;;;2.20;99.90;;;;;;5003422;28;20046;-72
2022/11/19 12:17:33;;;;;;;3.92;1.90;;;2.20;99.90;;;;;;4986700;28;20120;-72
2022/11/19 12:20:10;;;;;;;5.57;2.63;;;2.20;99.90;;;;;;5002372;28;20061;-72
2022/11/19 12:22:56;;;;;;;4.03;2.47;;;2.20;99.90;;;;;;5003961;28;20069;-72
2022/11/19 12:25:40;;;;;;;3.55;1.52;;;2.30;99.90;;;;;;5004214;28;20569;-72
2022/11/19 12:28:29;;;;;;;13.60;2.08;;;2.30;99.90;;;;;;5018152;28;20042;-72
2022/11/19 12:31:35;;;;;;;2.88;1.50;;;2.30;99.90;;;;;;5002908;28;20046;-72
2022/11/19 12:34:07;;;;;;;2.53;1.50;;;2.30;99.90;;;;;;4987178;28;20120;-72
2022/11/19 12:37:00;;;;;;;3.05;1.40;;;2.40;99.90;;;;;;4984130;28;20456;-72
2022/11/19 12:39:37;;;;;;;2.92;1.80;;;2.30;99.90;;;;;;5004305;28;20038;-72
2022/11/19 12:42:11;;;;;;;2.20;1.50;;;2.30;99.90;;;;;;5005781;28;20507;-72
2022/11/19 12:45:00;;;;;;;4.28;1.83;;;2.40;99.90;;;;;;5002039;28;20096;-73
2022/11/19 12:47:36;;;;;;;2.60;1.50;;;2.40;99.90;;;;;;5006481;28;20365;-71
2022/11/19 12:50:23;;;;;;;4.13;2.20;;;2.40;99.90;;;;;;5001831;28;20034;-72
2022/11/19 12:53:19;;;;;;;4.95;1.60;;;2.50;99.90;;;;;;5002024;28;20034;-72
2022/11/19 12:56:11;;;;;;;2.90;1.42;;;2.50;99.90;;;;;;4998853;28;20053;-72
2022/11/19 12:58:54;;;;;;;4.35;1.58;;;2.50;99.90;;;;;;4999625;28;20395;-72
2022/11/19 13:01:28;;;;;;;2.40;1.27;;;2.50;99.90;;;;;;4996194;28;20046;-72
2022/11/19 13:04:17;;;;;;;6.03;2.03;;;2.50;99.90;;;;;;4997379;28;20474;-72
2022/11/19 13:07:03;;;;;;;3.85;1.35;;;2.50;99.90;;;;;;4988827;28;20771;-71
2022/11/19 13:09:44;;;;;;;;;;;2.50;99.90;;;;;;4984538;28;20057;-71
2022/11/19 13:12:15;;;;;;;1.73;1.00;;;2.60;99.90;;;;;;4994762;28;19964;-72
2022/11/19 13:14:56;;;;;;;8.07;1.52;;;2.60;99.90;;;;;;4997949;28;20053;-71
2022/11/19 13:17:36;;;;;;;5.32;2.50;;;2.60;99.90;;;;;;4999909;28;20042;-71
2022/11/19 13:20:22;;;;;;;4.25;1.92;;;2.60;99.90;;;;;;5000022;28;20038;-72
2022/11/19 13:22:56;;;;;;;3.92;1.58;;;2.60;99.90;;;;;;5012448;28;20057;-72
2022/11/19 13:25:50;;;;;;;5.10;2.10;;;2.60;99.90;;;;;;4998550;28;20500;-72
2022/11/19 13:28:42;;;;;;;4.38;2.05;;;2.60;99.90;;;;;;4996467;28;20072;-72
2022/11/19 13:31:27;;;;;;;3.45;1.58;;;2.70;99.90;;;;;;4997877;28;20112;-71
2022/11/19 13:33:58;;;;;;;4.13;2.00;;;2.70;99.90;;;;;;5009792;28;20579;-72